Time;durP1;ratioP1;P1;durP2;ratioP2;P2;SDS_P1;SDS_P2;PMS_P1;PMS_P2;Temp;Humidity;BMP_temperature;BMP_pressure;BME280_temperature;BME280_humidity;BME280_pressure;Samples;Min_cycle;Max_cycle;Signal;HPM_P1;HPM_P2
2020/12/20 00:01:05;;;;;;;8.93;8.13;;;6.60;99.90;;;;;;5073235;28;20714;-87
2020/12/20 00:03:32;;;;;;;10.30;9.20;;;6.70;99.90;;;;;;5086430;28;20621;-86
2020/12/20 00:05:59;;;;;;;9.07;8.23;;;6.70;99.90;;;;;;5086502;28;20629;-86
2020/12/20 00:08:25;;;;;;;10.10;9.10;;;6.70;99.90;;;;;;5084379;28;20631;-86
2020/12/20 00:10:52;;;;;;;9.53;8.63;;;6.80;99.90;;;;;;5084371;28;20662;-85
2020/12/20 00:13:18;;;;;;;10.80;8.50;;;6.70;99.90;;;;;;5083177;28;20636;-85
2020/12/20 00:15:45;;;;;;;9.40;8.47;;;6.70;99.90;;;;;;5079095;28;21637;-87
2020/12/20 00:18:11;;;;;;;9.60;8.70;;;6.80;99.90;;;;;;5086060;28;20667;-85
2020/12/20 00:20:38;;;;;;;9.10;8.27;;;6.80;99.90;;;;;;5081477;28;20651;-85
2020/12/20 00:23:05;;;;;;;8.40;7.73;;;6.90;99.90;;;;;;5085041;28;20634;-87
2020/12/20 00:25:31;;;;;;;8.53;7.83;;;6.90;99.90;;;;;;5087541;28;20630;-85
2020/12/20 00:27:58;;;;;;;8.13;7.40;;;6.90;99.90;;;;;;5084357;28;20639;-85
2020/12/20 00:30:24;;;;;;;9.00;8.10;;;6.90;99.90;;;;;;5088630;28;20653;-85
2020/12/20 00:32:51;;;;;;;8.33;7.53;;;6.90;99.90;;;;;;5080711;28;21229;-87
2020/12/20 00:35:18;;;;;;;8.13;7.50;;;6.90;99.90;;;;;;5081273;28;21256;-87
2020/12/20 00:37:45;;;;;;;8.70;7.87;;;6.90;99.90;;;;;;5080625;28;20673;-87
2020/12/20 00:40:12;;;;;;;7.83;7.10;;;6.90;99.90;;;;;;5089457;28;20681;-87
2020/12/20 00:42:39;;;;;;;7.83;7.13;;;6.90;99.90;;;;;;5083681;28;20631;-85
2020/12/20 00:45:05;;;;;;;8.30;7.60;;;6.90;99.90;;;;;;5089109;28;20633;-85
2020/12/20 00:47:31;;;;;;;8.20;7.50;;;7.00;99.90;;;;;;5084127;28;20626;-85
2020/12/20 00:49:58;;;;;;;8.47;7.77;;;6.90;99.90;;;;;;5081858;28;20663;-84
2020/12/20 00:52:24;;;;;;;8.27;7.43;;;6.90;99.90;;;;;;5081061;28;20611;-85
2020/12/20 00:54:51;;;;;;;9.13;8.33;;;6.90;99.90;;;;;;5088996;28;20641;-83
2020/12/20 00:57:17;;;;;;;8.77;7.87;;;6.90;99.90;;;;;;5091747;28;21307;-85
2020/12/20 00:59:43;;;;;;;8.67;7.87;;;6.90;99.90;;;;;;5076543;28;21340;-86
2020/12/20 01:02:10;;;;;;;8.37;7.57;;;6.80;99.90;;;;;;5089138;28;20625;-84
2020/12/20 01:04:36;;;;;;;8.17;7.47;;;6.70;99.90;;;;;;5086800;28;20659;-84
2020/12/20 01:07:03;;;;;;;8.50;7.80;;;6.70;99.90;;;;;;5093109;28;20629;-84
2020/12/20 01:09:29;;;;;;;8.27;7.47;;;6.70;99.90;;;;;;5082701;28;20621;-85
2020/12/20 01:11:59;;;;;;;8.30;7.60;;;6.70;99.90;;;;;;5091172;28;20628;-85
2020/12/20 01:14:25;;;;;;;7.90;7.30;;;6.70;99.90;;;;;;5088288;28;21213;-85
2020/12/20 01:16:51;;;;;;;7.70;7.10;;;6.80;99.90;;;;;;5088802;28;21436;-85
2020/12/20 01:19:18;;;;;;;9.17;8.30;;;6.80;99.90;;;;;;5088574;28;21163;-84
2020/12/20 01:21:44;;;;;;;9.00;8.23;;;6.70;99.90;;;;;;5091284;28;20623;-85
2020/12/20 01:24:10;;;;;;;7.70;7.10;;;6.80;99.90;;;;;;5089951;28;20628;-85
2020/12/20 01:26:37;;;;;;;8.77;7.93;;;6.80;99.90;;;;;;5092320;28;20654;-86
2020/12/20 01:29:04;;;;;;;9.10;8.10;;;6.80;99.90;;;;;;5093565;28;20625;-85
2020/12/20 01:31:30;;;;;;;9.00;7.87;;;6.70;99.90;;;;;;5094411;28;21025;-86
2020/12/20 01:33:59;;;;;;;8.10;7.33;;;6.60;99.90;;;;;;5091272;28;20644;-86
2020/12/20 01:36:25;;;;;;;8.00;7.40;;;6.60;99.90;;;;;;5093582;28;21257;-86
2020/12/20 01:38:51;;;;;;;9.07;8.17;;;6.60;99.90;;;;;;5092178;28;20659;-85
2020/12/20 01:41:17;;;;;;;8.30;7.50;;;6.60;99.90;;;;;;5090404;28;21074;-85
2020/12/20 01:43:45;;;;;;;8.87;8.17;;;6.60;99.90;;;;;;5084808;28;20655;-85
2020/12/20 01:46:17;;;;;;;8.83;8.13;;;6.70;99.90;;;;;;5083531;28;20877;-85
2020/12/20 01:48:44;;;;;;;8.40;7.60;;;6.60;99.90;;;;;;5087106;28;20609;-86
2020/12/20 01:51:10;;;;;;;7.80;7.07;;;6.50;99.90;;;;;;5088376;28;20665;-86
2020/12/20 01:53:38;;;;;;;8.80;7.90;;;6.50;99.90;;;;;;5088462;28;20622;-85
2020/12/20 01:56:04;;;;;;;8.87;8.17;;;6.60;99.90;;;;;;5085121;28;20980;-85
2020/12/20 01:58:36;;;;;;;7.97;7.27;;;6.50;99.90;;;;;;5083383;28;20727;-85
2020/12/20 02:01:03;;;;;;;8.97;8.17;;;6.50;99.90;;;;;;5085919;28;21026;-85
2020/12/20 02:03:31;;;;;;;7.90;7.30;;;6.50;99.90;;;;;;5088431;28;21065;-85
2020/12/20 02:05:57;;;;;;;7.53;6.93;;;6.60;99.90;;;;;;5092216;28;20648;-85
2020/12/20 02:08:25;;;;;;;7.47;6.80;;;6.70;99.90;;;;;;5088676;28;20625;-85
2020/12/20 02:11:08;;;;;;;8.17;7.47;;;6.60;99.90;;;;;;5087974;28;20695;-85
2020/12/20 02:13:34;;;;;;;8.30;7.70;;;6.60;99.90;;;;;;5083666;28;20641;-85
2020/12/20 02:16:01;;;;;;;7.67;7.10;;;6.60;99.90;;;;;;5093774;28;20959;-84
2020/12/20 02:18:27;;;;;;;8.20;7.50;;;6.60;99.90;;;;;;5091587;28;20657;-84
2020/12/20 02:20:54;;;;;;;8.47;7.77;;;6.60;99.90;;;;;;5084671;28;20707;-84
2020/12/20 02:23:22;;;;;;;8.13;7.43;;;6.60;99.90;;;;;;5081375;28;20628;-84
2020/12/20 02:25:51;;;;;;;8.30;7.60;;;6.60;99.90;;;;;;5097844;28;20634;-84
2020/12/20 02:28:18;;;;;;;8.87;8.17;;;6.60;99.90;;;;;;5117575;28;20627;-84
2020/12/20 02:30:44;;;;;;;7.97;7.37;;;6.70;99.90;;;;;;5101776;28;20702;-84
2020/12/20 02:33:11;;;;;;;8.10;7.30;;;6.60;99.90;;;;;;5090573;28;20615;-84
2020/12/20 02:35:38;;;;;;;8.40;7.60;;;6.60;99.90;;;;;;5090043;28;21165;-85
2020/12/20 02:38:09;;;;;;;9.13;8.43;;;6.70;99.90;;;;;;5080388;28;20676;-85
2020/12/20 02:40:40;;;;;;;8.53;7.70;;;6.70;99.90;;;;;;5084752;28;21301;-85
2020/12/20 02:43:07;;;;;;;9.17;8.33;;;6.70;99.90;;;;;;5091631;28;20720;-87
2020/12/20 02:45:35;;;;;;;8.60;7.90;;;6.70;99.90;;;;;;5092218;28;20626;-86
2020/12/20 02:48:01;;;;;;;8.30;7.53;;;6.80;99.90;;;;;;5092292;28;20633;-86
2020/12/20 02:50:27;;;;;;;8.73;8.00;;;6.70;99.90;;;;;;5084959;28;20649;-86
2020/12/20 02:52:54;;;;;;;8.00;7.40;;;6.70;99.90;;;;;;5086090;28;20635;-87
2020/12/20 02:55:20;;;;;;;8.80;8.07;;;6.60;99.90;;;;;;5080839;28;20643;-86
2020/12/20 02:57:47;;;;;;;8.97;8.27;;;6.70;99.90;;;;;;5087297;28;21585;-85
2020/12/20 03:00:13;;;;;;;7.77;7.17;;;6.80;99.90;;;;;;5086360;28;20663;-85
2020/12/20 03:02:40;;;;;;;8.00;7.40;;;6.70;99.90;;;;;;5087823;28;20638;-87
2020/12/20 03:05:06;;;;;;;7.57;6.97;;;6.60;99.90;;;;;;5090305;28;20637;-85
2020/12/20 03:07:32;;;;;;;8.27;7.60;;;6.60;99.90;;;;;;5086587;28;20630;-86
2020/12/20 03:09:59;;;;;;;8.07;7.37;;;6.70;99.90;;;;;;5091624;28;20656;-85
2020/12/20 03:12:25;;;;;;;8.60;7.70;;;6.60;99.90;;;;;;5077968;28;20645;-85
2020/12/20 03:14:52;;;;;;;7.93;7.33;;;6.60;99.90;;;;;;5087166;28;20638;-85
2020/12/20 03:17:18;;;;;;;8.10;7.50;;;6.60;99.90;;;;;;5087028;28;20660;-85
2020/12/20 03:19:45;;;;;;;7.57;6.90;;;6.70;99.90;;;;;;5086384;28;20635;-86
2020/12/20 03:22:11;;;;;;;7.83;7.13;;;6.70;99.90;;;;;;5084131;28;20980;-85
2020/12/20 03:24:37;;;;;;;8.13;7.33;;;6.70;99.90;;;;;;5092376;28;20620;-86
2020/12/20 03:27:04;;;;;;;7.77;7.17;;;6.70;99.90;;;;;;5089851;28;20637;-85
2020/12/20 03:29:30;;;;;;;8.87;8.07;;;6.70;99.90;;;;;;5089905;28;20788;-85
2020/12/20 03:31:57;;;;;;;9.07;8.27;;;6.60;99.90;;;;;;5081150;28;20621;-85
2020/12/20 03:34:25;;;;;;;8.57;7.87;;;6.70;99.90;;;;;;5085252;28;20628;-84
2020/12/20 03:36:51;;;;;;;8.87;8.17;;;6.70;99.90;;;;;;5084634;28;20722;-85
2020/12/20 03:39:18;;;;;;;8.03;7.43;;;6.60;99.90;;;;;;5083560;28;20592;-87
2020/12/20 03:41:44;;;;;;;8.27;7.57;;;6.60;99.90;;;;;;5083683;28;20616;-85
2020/12/20 03:44:11;;;;;;;7.57;6.97;;;6.50;99.90;;;;;;5080806;28;20634;-86
2020/12/20 03:46:37;;;;;;;8.60;7.70;;;6.50;99.90;;;;;;5083314;28;20631;-86
2020/12/20 03:49:05;;;;;;;8.37;7.67;;;6.40;99.90;;;;;;5078672;28;20699;-86
2020/12/20 03:51:31;;;;;;;7.70;7.10;;;6.40;99.90;;;;;;5088858;28;20718;-86
2020/12/20 03:53:57;;;;;;;8.27;7.57;;;6.40;99.90;;;;;;5078240;28;20633;-87
2020/12/20 03:56:24;;;;;;;8.33;7.67;;;6.50;99.90;;;;;;5091297;28;20680;-87
2020/12/20 03:58:50;;;;;;;8.63;7.93;;;6.50;99.90;;;;;;5082860;28;21130;-87
2020/12/20 04:01:17;;;;;;;8.17;7.47;;;6.50;99.90;;;;;;5095024;28;20675;-87
2020/12/20 04:03:44;;;;;;;8.63;7.60;;;6.50;99.90;;;;;;5086727;28;20622;-87
2020/12/20 04:06:12;;;;;;;7.93;7.33;;;6.50;99.90;;;;;;5081546;28;21221;-87
2020/12/20 04:08:38;;;;;;;9.70;7.93;;;6.60;99.90;;;;;;5082787;28;20642;-85
2020/12/20 04:11:04;;;;;;;8.03;7.33;;;6.50;99.90;;;;;;5082199;28;20665;-86
2020/12/20 04:13:32;;;;;;;8.13;6.87;;;6.40;99.90;;;;;;5079320;28;20626;-85
2020/12/20 04:15:59;;;;;;;11.33;7.97;;;6.40;99.90;;;;;;5084253;28;20644;-85
2020/12/20 04:18:26;;;;;;;7.10;6.50;;;6.40;99.90;;;;;;5085794;28;20685;-86
2020/12/20 04:20:52;;;;;;;8.57;7.80;;;6.40;99.90;;;;;;5078793;28;20700;-85
2020/12/20 04:23:21;;;;;;;8.57;7.80;;;6.40;99.90;;;;;;5089786;28;20635;-87
2020/12/20 04:25:47;;;;;;;8.27;7.53;;;6.40;99.90;;;;;;5095754;28;20640;-85
2020/12/20 04:28:13;;;;;;;7.97;7.30;;;6.40;99.90;;;;;;5086199;28;20943;-85
2020/12/20 04:30:40;;;;;;;8.80;8.00;;;6.50;99.90;;;;;;5087104;28;20765;-86
2020/12/20 04:33:06;;;;;;;7.27;6.77;;;6.50;99.90;;;;;;5088137;28;21077;-85
2020/12/20 04:35:32;;;;;;;7.93;7.23;;;6.40;99.90;;;;;;5090725;28;20652;-86
2020/12/20 04:37:59;;;;;;;7.73;7.13;;;6.30;99.90;;;;;;5088713;28;20663;-85
2020/12/20 04:40:27;;;;;;;7.30;6.37;;;6.30;99.90;;;;;;5090622;28;20683;-85
2020/12/20 04:42:59;;;;;;;7.63;7.03;;;6.30;99.90;;;;;;5088602;28;20703;-85
2020/12/20 04:45:26;;;;;;;7.47;6.83;;;6.30;99.90;;;;;;5088849;28;20644;-84
2020/12/20 04:47:54;;;;;;;7.90;6.90;;;6.30;99.90;;;;;;5085435;28;20626;-84
2020/12/20 04:50:21;;;;;;;8.50;7.70;;;6.30;99.90;;;;;;5084730;28;20644;-85
2020/12/20 04:52:50;;;;;;;7.60;7.00;;;6.30;99.90;;;;;;5087693;28;20627;-85
2020/12/20 04:55:16;;;;;;;7.50;6.90;;;6.40;99.90;;;;;;5086148;28;20633;-85
2020/12/20 04:57:43;;;;;;;7.50;6.90;;;6.30;99.90;;;;;;5088305;28;20663;-85
2020/12/20 05:00:10;;;;;;;8.50;7.60;;;6.40;99.90;;;;;;5092068;28;20648;-85
2020/12/20 05:02:37;;;;;;;7.90;7.20;;;6.40;99.90;;;;;;5087115;28;20663;-87
2020/12/20 05:05:05;;;;;;;10.30;7.90;;;6.40;99.90;;;;;;5085151;28;20654;-86
2020/12/20 05:07:32;;;;;;;7.73;7.13;;;6.40;99.90;;;;;;5086304;28;20636;-88
2020/12/20 05:09:58;;;;;;;7.40;6.70;;;6.40;99.90;;;;;;5086088;28;20718;-87
2020/12/20 05:12:29;;;;;;;7.70;7.10;;;6.40;99.90;;;;;;5083754;28;21020;-86
2020/12/20 05:14:57;;;;;;;8.57;7.87;;;6.40;99.90;;;;;;5089384;28;20714;-87
2020/12/20 05:17:24;;;;;;;8.83;7.00;;;6.40;99.90;;;;;;5086980;28;20659;-87
2020/12/20 05:19:51;;;;;;;7.40;6.70;;;6.30;99.90;;;;;;5089251;28;21047;-86
2020/12/20 05:22:19;;;;;;;8.30;7.70;;;6.30;99.90;;;;;;5081779;28;20653;-86
2020/12/20 05:24:46;;;;;;;7.57;6.90;;;6.20;99.90;;;;;;5083631;28;20628;-87
2020/12/20 05:27:28;;;;;;;8.97;8.10;;;6.10;99.90;;;;;;5087212;28;20631;-86
2020/12/20 05:30:10;;;;;;;7.70;6.70;;;6.40;99.90;;;;;;5088137;28;20658;-86
2020/12/20 05:32:40;;;;;;;8.57;7.67;;;6.40;99.90;;;;;;5085885;28;20670;-86
2020/12/20 05:35:08;;;;;;;9.33;8.43;;;6.40;99.90;;;;;;5090703;28;20635;-86
2020/12/20 05:37:36;;;;;;;7.80;6.70;;;6.40;99.90;;;;;;5093130;28;20663;-86
2020/12/20 05:40:08;;;;;;;7.83;7.00;;;6.40;99.90;;;;;;5087523;28;20701;-85
2020/12/20 05:42:35;;;;;;;8.40;7.57;;;6.40;99.90;;;;;;5098360;28;20625;-86
2020/12/20 05:45:08;;;;;;;8.30;7.60;;;6.30;99.90;;;;;;5093438;28;20623;-87
2020/12/20 05:47:39;;;;;;;7.40;6.80;;;6.30;99.90;;;;;;5089145;28;20644;-87
2020/12/20 05:50:06;;;;;;;7.43;6.80;;;6.30;99.90;;;;;;5109001;28;20641;-87
2020/12/20 05:52:32;;;;;;;8.17;7.47;;;6.30;99.90;;;;;;5110331;28;20631;-87
2020/12/20 05:54:58;;;;;;;7.77;7.17;;;6.30;99.90;;;;;;5092809;28;20632;-85
2020/12/20 05:57:25;;;;;;;10.80;8.20;;;6.30;99.90;;;;;;5091032;28;20670;-86
2020/12/20 05:59:53;;;;;;;8.17;7.47;;;6.30;99.90;;;;;;5089493;28;20716;-87
2020/12/20 06:02:20;;;;;;;8.43;7.70;;;6.40;99.90;;;;;;5079831;27;20737;-87
2020/12/20 06:04:48;;;;;;;7.67;6.97;;;6.40;99.90;;;;;;5083417;28;20687;-87
2020/12/20 06:07:16;;;;;;;7.23;6.63;;;6.40;99.90;;;;;;5086494;28;20643;-86
2020/12/20 06:09:53;;;;;;;7.80;7.20;;;6.30;99.90;;;;;;5082803;28;20652;-86
2020/12/20 06:12:21;;;;;;;7.97;7.27;;;6.30;99.90;;;;;;5091605;28;20676;-86
2020/12/20 06:14:48;;;;;;;7.70;7.00;;;6.20;99.90;;;;;;5088421;28;20627;-86
2020/12/20 06:17:16;;;;;;;8.63;7.83;;;6.20;99.90;;;;;;5087839;28;20648;-87
2020/12/20 06:19:54;;;;;;;7.30;6.73;;;6.20;99.90;;;;;;5087989;28;20663;-88
2020/12/20 06:22:24;;;;;;;8.20;7.50;;;6.30;99.90;;;;;;5089498;28;20629;-86
2020/12/20 06:24:51;;;;;;;7.60;7.00;;;6.30;99.90;;;;;;5086310;28;20617;-86
2020/12/20 06:27:20;;;;;;;8.40;7.70;;;6.30;99.90;;;;;;5088528;28;20630;-85
2020/12/20 06:29:49;;;;;;;9.30;8.50;;;6.20;99.90;;;;;;5091516;28;20654;-86
2020/12/20 06:32:22;;;;;;;8.60;7.90;;;6.30;99.90;;;;;;5087850;28;20663;-88
2020/12/20 06:34:50;;;;;;;6.97;6.47;;;6.30;99.90;;;;;;5088449;28;20645;-85
2020/12/20 06:37:19;;;;;;;9.00;8.20;;;6.30;99.90;;;;;;5090177;28;21180;-85
2020/12/20 06:39:45;;;;;;;8.03;7.33;;;6.30;99.90;;;;;;5086207;28;20650;-86
2020/12/20 06:42:12;;;;;;;7.20;6.60;;;6.30;99.90;;;;;;5082353;28;20632;-86
2020/12/20 06:44:38;;;;;;;8.17;7.37;;;6.20;99.90;;;;;;5091435;27;21082;-86
2020/12/20 06:47:05;;;;;;;7.93;7.27;;;6.10;99.90;;;;;;5089806;28;21172;-85
2020/12/20 06:49:36;;;;;;;8.17;7.37;;;6.10;99.90;;;;;;5093994;28;21546;-87
2020/12/20 06:52:24;;;;;;;8.60;7.80;;;6.10;99.90;;;;;;5085998;28;20627;-85
2020/12/20 06:55:07;;;;;;;7.70;6.90;;;6.10;99.90;;;;;;5084458;28;20672;-86
2020/12/20 06:57:33;;;;;;;8.00;7.40;;;6.00;99.90;;;;;;5087330;28;20672;-87
2020/12/20 07:00:00;;;;;;;7.43;6.83;;;6.00;99.90;;;;;;5091412;28;20642;-86
2020/12/20 07:02:46;;;;;;;8.10;7.30;;;5.90;99.90;;;;;;5085284;28;20625;-86
2020/12/20 07:05:35;;;;;;;8.00;7.30;;;6.00;99.90;;;;;;5094580;28;20626;-85
2020/12/20 07:08:20;;;;;;;7.53;6.93;;;6.10;99.90;;;;;;5075469;28;20711;-86
2020/12/20 07:10:48;;;;;;;8.40;7.63;;;6.10;99.90;;;;;;5066165;28;20636;-87
2020/12/20 07:13:16;;;;;;;8.23;7.43;;;6.10;99.90;;;;;;5089286;28;20603;-86
2020/12/20 07:15:50;;;;;;;8.03;7.43;;;6.10;99.90;;;;;;5088979;28;20627;-87
2020/12/20 07:18:43;;;;;;;8.00;7.30;;;6.20;99.90;;;;;;5088182;28;20668;-86
2020/12/20 07:21:33;;;;;;;8.03;7.33;;;6.20;99.90;;;;;;5089767;28;20637;-86
2020/12/20 07:24:05;;;;;;;7.90;7.20;;;6.10;99.90;;;;;;5084566;28;20623;-86
2020/12/20 07:26:32;;;;;;;7.50;6.90;;;6.00;99.90;;;;;;5091551;28;20646;-86
2020/12/20 07:28:59;;;;;;;7.40;6.70;;;6.00;99.90;;;;;;5093793;28;20622;-86
2020/12/20 07:31:26;;;;;;;7.77;7.07;;;6.10;99.90;;;;;;5093271;28;21252;-86
2020/12/20 07:33:52;;;;;;;8.60;7.80;;;6.20;99.90;;;;;;5090382;28;20702;-86
2020/12/20 07:36:19;;;;;;;7.73;6.93;;;6.20;99.90;;;;;;5086670;28;20654;-86
2020/12/20 07:38:46;;;;;;;8.33;7.60;;;6.20;99.90;;;;;;5089015;28;20670;-86
2020/12/20 07:41:16;;;;;;;8.73;7.93;;;6.20;99.90;;;;;;5077667;28;21050;-87
2020/12/20 07:43:43;;;;;;;7.53;6.83;;;6.20;99.90;;;;;;5085466;28;20650;-86
2020/12/20 07:46:12;;;;;;;7.00;6.43;;;6.30;99.90;;;;;;5090773;28;20656;-86
2020/12/20 07:48:39;;;;;;;7.37;6.77;;;6.30;99.90;;;;;;5089094;28;20622;-87
2020/12/20 07:51:10;;;;;;;7.70;7.00;;;6.30;99.90;;;;;;5092243;28;20700;-85
2020/12/20 07:53:36;;;;;;;7.30;6.70;;;6.30;99.90;;;;;;5086944;28;20587;-87
2020/12/20 07:56:03;;;;;;;7.73;6.93;;;6.30;99.90;;;;;;5091081;28;20650;-86
2020/12/20 07:58:34;;;;;;;8.70;8.00;;;6.40;99.90;;;;;;5083740;28;20662;-86
2020/12/20 08:01:06;;;;;;;8.50;7.80;;;6.50;99.90;;;;;;5089321;28;20643;-86
2020/12/20 08:03:32;;;;;;;8.97;8.17;;;6.50;99.90;;;;;;5085093;28;20623;-87
2020/12/20 08:06:07;;;;;;;7.83;7.13;;;6.50;99.90;;;;;;5084812;28;20645;-87
2020/12/20 08:08:33;;;;;;;9.03;8.13;;;6.60;99.90;;;;;;5082771;28;20640;-86
2020/12/20 08:11:07;;;;;;;8.43;7.63;;;6.50;99.90;;;;;;5094730;28;20636;-86
2020/12/20 08:13:34;;;;;;;8.30;7.70;;;6.60;99.90;;;;;;5092797;28;20603;-86
2020/12/20 08:16:00;;;;;;;10.23;9.33;;;6.80;99.90;;;;;;5093340;28;20639;-86
2020/12/20 08:18:27;;;;;;;8.60;7.80;;;6.70;99.90;;;;;;5094333;28;21071;-85
2020/12/20 08:20:55;;;;;;;8.73;7.93;;;6.80;99.90;;;;;;5089128;28;21083;-86
2020/12/20 08:23:23;;;;;;;7.90;7.30;;;6.80;99.90;;;;;;5093211;28;20613;-85
2020/12/20 08:25:51;;;;;;;9.17;8.17;;;6.80;99.90;;;;;;5090366;28;20629;-85
2020/12/20 08:28:17;;;;;;;8.37;7.67;;;6.90;99.90;;;;;;5090491;28;20620;-86
2020/12/20 08:30:45;;;;;;;9.17;8.37;;;6.90;99.90;;;;;;5095652;28;20664;-86
2020/12/20 08:33:11;;;;;;;9.00;8.40;;;7.00;99.90;;;;;;5082282;28;21272;-86
2020/12/20 08:35:37;;;;;;;9.20;8.40;;;7.00;99.90;;;;;;5083356;28;20636;-86
2020/12/20 08:38:04;;;;;;;8.30;7.70;;;7.20;99.90;;;;;;5086924;28;20681;-86
2020/12/20 08:40:31;;;;;;;8.20;7.60;;;7.30;99.90;;;;;;5093198;28;20628;-86
2020/12/20 08:42:59;;;;;;;7.80;7.20;;;7.30;99.90;;;;;;5091994;28;20660;-86
2020/12/20 08:45:28;;;;;;;8.90;8.20;;;7.50;99.90;;;;;;5091300;28;20640;-86
2020/12/20 08:48:02;;;;;;;8.83;8.13;;;7.70;99.90;;;;;;5084950;28;20674;-86
2020/12/20 08:50:31;;;;;;;8.10;7.37;;;7.80;99.90;;;;;;5094763;28;20616;-86
2020/12/20 08:53:01;;;;;;;7.77;7.07;;;7.90;99.90;;;;;;5084406;28;21013;-86
2020/12/20 08:55:28;;;;;;;8.23;7.53;;;7.80;99.90;;;;;;5090494;28;21183;-86
2020/12/20 08:58:05;;;;;;;8.07;7.47;;;7.80;99.90;;;;;;5093389;28;20724;-86
2020/12/20 09:00:34;;;;;;;8.00;7.40;;;7.80;99.90;;;;;;5092542;28;20612;-86
2020/12/20 09:03:03;;;;;;;8.80;7.97;;;7.70;99.90;;;;;;5090371;28;20642;-86
2020/12/20 09:05:31;;;;;;;9.43;8.63;;;7.70;99.90;;;;;;5095612;28;20626;-86
2020/12/20 09:07:58;;;;;;;8.27;7.57;;;7.60;99.90;;;;;;5086493;28;20645;-86
2020/12/20 09:10:26;;;;;;;8.20;7.60;;;7.50;99.90;;;;;;5078471;28;20644;-85
2020/12/20 09:12:53;;;;;;;8.60;7.93;;;7.50;99.90;;;;;;5110453;28;20630;-86
2020/12/20 09:15:21;;;;;;;9.50;8.50;;;7.60;99.90;;;;;;5108781;28;20631;-86
2020/12/20 09:17:49;;;;;;;8.93;8.00;;;7.60;99.90;;;;;;5095850;28;20709;-87
2020/12/20 09:20:20;;;;;;;8.93;7.40;;;7.80;99.90;;;;;;5095371;28;20602;-86
2020/12/20 09:22:52;;;;;;;9.13;8.33;;;7.80;99.90;;;;;;5090955;28;21372;-86
2020/12/20 09:25:30;;;;;;;8.90;8.20;;;8.10;99.90;;;;;;5101192;28;20668;-86
2020/12/20 09:28:01;;;;;;;9.00;8.23;;;8.30;99.90;;;;;;5095884;28;20640;-86
2020/12/20 09:30:42;;;;;;;8.30;7.60;;;8.60;99.90;;;;;;5090721;28;20700;-87
2020/12/20 09:33:26;;;;;;;8.20;7.60;;;9.10;99.90;;;;;;5083028;28;20710;-86
2020/12/20 09:35:57;;;;;;;8.53;7.83;;;9.00;99.90;;;;;;5083679;28;20623;-86
2020/12/20 09:38:25;;;;;;;9.37;8.10;;;8.80;99.90;;;;;;5094986;28;20743;-87
2020/12/20 09:41:02;;;;;;;8.90;8.07;;;8.80;99.90;;;;;;5088406;28;20698;-87
2020/12/20 09:43:29;;;;;;;11.40;7.33;;;8.90;99.90;;;;;;5086810;28;20635;-85
2020/12/20 09:45:56;;;;;;;7.83;7.20;;;8.90;99.90;;;;;;5092237;28;20659;-86
2020/12/20 09:48:22;;;;;;;7.83;7.13;;;9.00;99.90;;;;;;5087479;28;20616;-86
2020/12/20 09:50:49;;;;;;;8.57;7.87;;;9.00;99.90;;;;;;5086437;28;20621;-86
2020/12/20 09:53:16;;;;;;;8.33;7.63;;;9.30;99.90;;;;;;5086842;28;20634;-86
2020/12/20 09:55:42;;;;;;;8.27;7.33;;;9.40;99.90;;;;;;5085683;28;20624;-86
2020/12/20 09:58:10;;;;;;;8.60;7.70;;;9.40;99.90;;;;;;5079838;28;20669;-87
2020/12/20 10:00:38;;;;;;;7.67;6.97;;;9.50;99.90;;;;;;5079914;28;20646;-87
2020/12/20 10:03:05;;;;;;;8.53;7.77;;;9.50;99.90;;;;;;5075047;28;20744;-87
2020/12/20 10:05:31;;;;;;;8.43;7.80;;;9.50;99.90;;;;;;5099051;28;20618;-86
2020/12/20 10:07:58;;;;;;;7.70;7.00;;;9.60;99.90;;;;;;5107683;28;20878;-87
2020/12/20 10:10:26;;;;;;;8.37;7.67;;;9.70;99.90;;;;;;5108432;28;20672;-86
2020/12/20 10:12:52;;;;;;;9.73;8.83;;;9.50;99.90;;;;;;5093147;28;20633;-87
2020/12/20 10:15:19;;;;;;;9.23;8.43;;;9.50;99.90;;;;;;5089924;28;20655;-86
2020/12/20 10:17:45;;;;;;;8.27;7.67;;;9.50;99.90;;;;;;5085132;28;20731;-87
2020/12/20 10:20:12;;;;;;;8.13;7.27;;;9.30;99.90;;;;;;5088353;28;20637;-87
2020/12/20 10:22:38;;;;;;;8.60;7.90;;;9.30;99.90;;;;;;5084727;28;20655;-86
2020/12/20 10:25:05;;;;;;;8.70;8.00;;;9.30;99.90;;;;;;5089658;28;21206;-86
2020/12/20 10:27:33;;;;;;;9.20;8.37;;;9.50;99.90;;;;;;5090183;28;20586;-87
2020/12/20 10:29:59;;;;;;;8.80;7.50;;;9.50;99.90;;;;;;5089792;28;21046;-87
2020/12/20 10:32:26;;;;;;;9.00;8.20;;;9.30;99.90;;;;;;5090162;28;20667;-86
2020/12/20 10:34:52;;;;;;;8.23;7.63;;;9.30;99.90;;;;;;5087973;28;20679;-86
2020/12/20 10:37:19;;;;;;;8.40;7.70;;;9.30;99.90;;;;;;5087536;28;20638;-85
2020/12/20 10:39:45;;;;;;;8.13;7.43;;;9.30;99.90;;;;;;5087550;28;20699;-86
2020/12/20 10:42:13;;;;;;;9.97;9.17;;;9.30;99.90;;;;;;5083811;28;20628;-86
2020/12/20 10:44:42;;;;;;;8.67;7.97;;;9.50;99.90;;;;;;5085305;28;20636;-86
2020/12/20 10:47:10;;;;;;;8.10;7.37;;;9.50;99.90;;;;;;5096218;28;20594;-86
2020/12/20 10:49:36;;;;;;;7.80;7.20;;;9.50;99.90;;;;;;5087941;28;20636;-87
2020/12/20 10:52:03;;;;;;;8.77;8.07;;;9.40;99.90;;;;;;5083585;28;20637;-86
2020/12/20 10:54:32;;;;;;;8.67;7.90;;;9.40;99.90;;;;;;5089190;28;20654;-87
2020/12/20 10:57:00;;;;;;;8.30;7.60;;;9.50;99.90;;;;;;5093137;28;20624;-86
2020/12/20 10:59:27;;;;;;;9.27;8.47;;;9.50;99.90;;;;;;5089934;28;20623;-87
2020/12/20 11:02:00;;;;;;;8.93;8.10;;;9.60;99.90;;;;;;5081944;28;20635;-87
2020/12/20 11:04:27;;;;;;;7.77;7.07;;;9.60;99.90;;;;;;5082153;28;20645;-87
2020/12/20 11:06:56;;;;;;;9.33;8.50;;;9.60;99.90;;;;;;5091487;28;20623;-87
2020/12/20 11:09:23;;;;;;;8.50;7.80;;;9.60;99.90;;;;;;5088306;28;20990;-87
2020/12/20 11:11:50;;;;;;;8.57;7.87;;;9.60;99.90;;;;;;5085154;28;20614;-87
2020/12/20 11:14:17;;;;;;;8.23;7.43;;;9.70;99.90;;;;;;5086203;28;20663;-86
2020/12/20 11:16:46;;;;;;;8.53;7.80;;;9.70;99.90;;;;;;5088272;28;20590;-86
2020/12/20 11:19:14;;;;;;;9.80;8.90;;;9.80;99.90;;;;;;5083692;28;20758;-86
2020/12/20 11:21:41;;;;;;;8.97;8.23;;;10.00;99.90;;;;;;5087802;27;21127;-86
2020/12/20 11:24:08;;;;;;;8.97;8.20;;;10.20;99.90;;;;;;5082134;28;20693;-86
2020/12/20 11:26:35;;;;;;;7.90;7.20;;;10.50;99.90;;;;;;5090129;28;20635;-87
2020/12/20 11:29:02;;;;;;;9.37;8.47;;;10.50;99.70;;;;;;5086665;28;21186;-86
2020/12/20 11:31:28;;;;;;;8.90;8.20;;;10.60;99.50;;;;;;5088194;28;20660;-86
2020/12/20 11:33:55;;;;;;;8.93;8.13;;;10.80;99.20;;;;;;5079978;28;20789;-87
2020/12/20 11:36:24;;;;;;;8.50;7.70;;;10.80;98.90;;;;;;5081232;28;20662;-87
2020/12/20 11:38:51;;;;;;;8.50;7.80;;;10.90;99.70;;;;;;5087194;28;20714;-86
2020/12/20 11:41:20;;;;;;;9.00;8.20;;;10.90;99.40;;;;;;5094337;28;20635;-87
2020/12/20 11:43:46;;;;;;;8.23;7.53;;;10.90;99.80;;;;;;5104203;28;20666;-86
2020/12/20 11:46:13;;;;;;;8.83;8.13;;;10.90;99.20;;;;;;5089372;28;20647;-86
2020/12/20 11:48:40;;;;;;;9.77;8.40;;;10.70;99.30;;;;;;5108970;28;20606;-85
2020/12/20 11:51:09;;;;;;;11.70;8.70;;;10.60;99.90;;;;;;5104763;28;20632;-85
2020/12/20 11:53:36;;;;;;;9.10;8.30;;;10.60;99.90;;;;;;5090049;28;20651;-85
2020/12/20 11:56:05;;;;;;;8.87;8.07;;;10.70;99.40;;;;;;5085497;28;20637;-85
2020/12/20 11:58:31;;;;;;;9.07;7.10;;;10.60;99.80;;;;;;5088702;28;21073;-84
2020/12/20 12:00:58;;;;;;;8.60;7.70;;;10.60;99.90;;;;;;5086100;28;20616;-85
2020/12/20 12:03:25;;;;;;;8.10;7.30;;;10.70;99.90;;;;;;5084716;28;20658;-85
2020/12/20 12:05:52;;;;;;;8.87;8.17;;;10.80;99.90;;;;;;5083708;28;20648;-85
2020/12/20 12:08:18;;;;;;;23.60;10.40;;;10.70;99.90;;;;;;5086897;28;20622;-85
2020/12/20 12:10:46;;;;;;;8.53;7.73;;;10.90;99.40;;;;;;5078989;28;20625;-84
2020/12/20 12:13:13;;;;;;;9.07;8.37;;;11.00;99.10;;;;;;5085656;28;20653;-85
2020/12/20 12:15:40;;;;;;;7.60;6.90;;;11.10;99.40;;;;;;5083375;28;21532;-85
2020/12/20 12:18:07;;;;;;;8.30;7.53;;;11.10;99.00;;;;;;5090348;28;20676;-85
2020/12/20 12:20:34;;;;;;;9.03;8.33;;;11.10;98.80;;;;;;5086637;28;20628;-86
2020/12/20 12:23:01;;;;;;;8.57;7.83;;;11.00;99.10;;;;;;5079899;28;20687;-85
2020/12/20 12:25:28;;;;;;;8.97;8.17;;;10.90;99.20;;;;;;5091937;28;21204;-85
2020/12/20 12:27:56;;;;;;;8.90;8.00;;;10.90;99.10;;;;;;5083764;28;20670;-84
2020/12/20 12:30:22;;;;;;;8.60;7.90;;;11.10;98.70;;;;;;5092215;28;20678;-85
2020/12/20 12:32:52;;;;;;;9.00;8.20;;;11.10;99.00;;;;;;5089277;28;21031;-84
2020/12/20 12:35:20;;;;;;;9.40;8.50;;;11.10;99.10;;;;;;5084687;28;21035;-84
2020/12/20 12:37:46;;;;;;;9.03;8.23;;;11.10;98.90;;;;;;5078946;28;21036;-85
2020/12/20 12:40:12;;;;;;;11.90;8.93;;;11.00;99.00;;;;;;5086666;28;20681;-85
2020/12/20 12:42:40;;;;;;;9.70;8.70;;;11.10;98.90;;;;;;5080931;28;21027;-85
2020/12/20 12:45:07;;;;;;;10.30;9.40;;;11.10;99.20;;;;;;5091433;28;20693;-85
2020/12/20 12:47:33;;;;;;;9.17;8.43;;;10.90;99.30;;;;;;5085704;28;20625;-85
2020/12/20 12:50:00;;;;;;;10.40;9.50;;;11.00;99.30;;;;;;5088486;28;20611;-84
2020/12/20 12:52:26;;;;;;;11.03;10.20;;;11.00;99.20;;;;;;5082344;28;21257;-85
2020/12/20 12:54:52;;;;;;;12.00;11.00;;;11.00;99.40;;;;;;5086536;28;20635;-85
2020/12/20 12:57:18;;;;;;;10.70;9.77;;;10.90;99.90;;;;;;5087082;28;20639;-86
2020/12/20 12:59:45;;;;;;;10.67;9.67;;;10.70;99.50;;;;;;5084089;28;20701;-85